MapTableWeb Map

Choose a state:
Locations above flood stage
(67 streamgages are currently reporting water levels above the National Weather Service defined flood stage)
USGS
station
ID
USGS station name NWS
flood
stage
(ft)
Most recent
stage
(ft)
Most recent
flow
(cfs)
Historical
peaks
(cfs)
Most recent
local
date/time
NWS
station
ID
08041780Neches Rv Saltwater Barrier at Beaumont, TX 4 7.29 47,400 95,800 2016-05-03 15:15:00 NSBT2
08032000Neches Rv nr Neches, TX 12 15.87 5,170 45,500 2016-05-03 15:30:00 NCST2
08062700Trinity Rv at Trinidad, TX 33 39.05 24,100 94,500 2016-05-03 16:00:00 TDDT2
08018500Sabine Rv nr Mineola, TX 14 18.22 9,510 76,000 2016-05-03 15:15:00 MLAT2
08030500Sabine Rv nr Ruliff, TX 24 24.76 24,400 121,000 2016-05-03 15:45:00 DWYT2
08033000Neches Rv nr Diboll, TX 12 15.33 13,900 110,000 2016-05-03 15:15:00 DIBT2
07349650(COE) Byu Bodcau Lake nr Shreveport, LA (Landside) 172 187.69

 

2016-05-03 15:00:00  
08065000Trinity Rv nr Oakwood, TX 35 39.49 31,800 180,000 2016-05-03 15:30:00 LOLT2
08066000Trinity Rv at Riverside, TX 133.5 135.69

 

121,000 2016-05-03 15:30:00 RVRT2
08019200Sabine Rv nr Hawkins, TX 23 33.56 23,500 31,800 2016-05-03 15:45:00 HAKT2
06605850Little Sioux River at Linn Grove, IA 18 20.01 7,020 22,500 2016-05-03 16:00:00 LNNI4
08020000Sabine Rv nr Gladewater, TX 26 35.32 16,400 138,000 2016-05-03 15:15:00 GDWT2
06821190Platte River at Sharps Station, MO 26 30.06 16,200 41,800 2016-05-03 15:30:00 SSTM7
06895500Missouri River at Waverly, MO 20 22.90 161,000 633,000 2016-05-03 15:30:00 WVYM7
05482300North Raccoon River near Sac City, IA 13 15.60 4,280 13,100 2016-05-03 15:15:00 SCRI4
06605000Ocheyedan River near Spencer, IA 8 8.48 1,800 26,000 2016-05-03 15:45:00 SPOI4
06604440Little Sioux River at 300th St near Spencer, IA 10 11.04 2,120 6,020 2016-05-03 15:15:00 LSSI4
08067000Trinity Rv at Liberty, TX 26 28.82 49,700 135,000 2016-05-03 15:15:00 LBYT2
05482430North Raccoon River near Lanesboro, IA 15 17.69

 

  2016-05-03 15:15:00 LKCI4
06485500BIG SIOUX R AT AKRON,IA 16 18.20 11,900 108,000 2016-05-03 16:00:00 AKRI4
08019000Lake Fk Ck nr Quitman, TX 16 16.79 3,970 75,600 2016-05-03 15:15:00 QTMT2
06918250Osage River at Taberville, MO 21 23.26 19,900 42,100 2016-05-03 15:45:00 TBVM7
07343500White Oak Ck nr Talco, TX 16 17.80 6,480 48,000 2016-05-03 15:15:00 WOCT2
07346070Little Cypress Bayou nr Jefferson, TX 13 15.55 10,200 35,500 2016-05-03 15:15:00 JFFT2
07346045Black Cypress Bayou at Jefferson, TX 13 17.25 5,500 12,200 2016-05-03 16:00:00 JEFT2
08020900Sabine Rv bl Longview, TX 25 30.29 13,300 25,900 2016-05-03 16:00:00 LONT2
07346310(COE) Caddo Lake at Dam near Mooringsport, LA 172 175.17

 

2016-05-03 15:00:00  
06818000Missouri River at St. Joseph, MO 17 19.79 114,000 397,000 2016-05-03 15:30:00 SJSM7
08022040Sabine Rv nr Beckville, TX 26 29.05 20,900 123,000 2016-05-03 15:45:00 BEKT2
08041000Neches Rv at Evadale, TX 17 17.33 20,200 125,000 2016-05-03 15:00:00 EVDT2
07348700Bayou Dorcheat near Springhill, LA 11 16.09 8,250 36,700 2016-05-03 15:00:00 SPHL1
08012150Mermentau River At Mermentau, LA 4 5.74 15,400 58,000 2016-05-03 15:15:00 MRML1
08038000Attoyac Bayou nr Chireno, TX 14 18.02 3,530 50,000 2016-05-03 15:30:00 ATBT2
06813500Missouri River at Rulo, NE 17 19.68 105,000 358,000 2016-05-03 15:45:00 RULN1
07367005Ouachita River at West Monroe, LA 40 40.54 63,800 88,500 2016-05-03 15:00:00 MLUL1
06810070Missouri River at Brownville, NE 33 36.06

 

  2016-05-03 15:15:00 BRON1
08066250Trinity Rv nr Goodrich, TX 36 37.14 64,100 125,000 2016-05-03 15:45:00 GRIT2
03379500LITTLE WABASH RIVER BELOW CLAY CITY, IL 18 18.33 3,410 47,000 2016-05-03 14:45:00  
05484900Raccoon River at Fleur Drive at Des Moines, IA 12 12.84 17,100 67,900 2016-05-03 15:45:00 DEMI4
06807000Missouri River at Nebraska City, NE 18 19.16 94,400 414,000 2016-05-03 16:00:00 NEBN1
03374000WHITE RIVER AT PETERSBURG, IN 16 17.19 32,200 235,000 2016-05-03 15:30:00 PTRI3
05476500Des Moines River at Estherville, IA 8 8.69

 

16,000 2016-05-03 15:00:00 ESVI4
08041700Pine Island Bayou nr Sour Lake, TX 25 26.17 2,180 48,800 2016-05-03 15:45:00 SOLT2
07386880Vermilion River at Surrey St. at Lafayette, LA 10 11.37 2,310 6,280 2016-05-03 15:15:00 VLSL1
08010000Bayou Des Cannes near Eunice, LA 16 16.13 2,200 11,900 2016-05-03 15:00:00 BDCL1
07348500(COE) Red River at Shreveport, LA 30 32.16

 

303,000 2016-05-03 16:00:00  
07386600Vermilion River (B. Vermilion) near Carencro, LA 17 19.40

 

2016-05-03 15:00:00 BVCL1
08031000Cow Bayou nr Mauriceville, TX 17 17.83 1,270 4,600 2016-05-03 15:00:00 MCVT2
07362000Ouachita River at Camden, AR 26 34.06 87,300 243,000 2016-05-03 15:00:00 CAMA4
03374100WHITE RIVER AT HAZLETON, IN 16 16.64 29,200 138,000 2016-05-03 15:45:00 HZNI3
07074850White River near Augusta, AR 26 28.32 31,600 262,000 2016-05-03 15:00:00 AUGA4
03282120KENTUCKY RIVER AT LOCK 12 NEAR IRVINE, KY 21 21.92 33,500 58,600 2016-05-03 16:15:00 RAVK2
08036500Angelina Rv nr Alto, TX 29 30.73 23,600 42,500 2016-05-03 15:00:00 ALOT2
08070200E Fk San Jacinto Rv nr New Caney, TX 19 19.38 5,980 74,100 2016-05-03 16:00:00 NCET2
07350500(COE) Red River at Coushatta 31 32.15

 

275,000 2016-05-03 15:00:00  
06906500Missouri River at Glasgow, MO 25 25.86 178,000 322,000 2016-05-03 15:30:00 GLZM7
08041749Pine Island Bayou abv BI Pump Plant, Beaumont, TX 11 11.04 6,590 22,700 2016-05-03 15:45:00 BIPT2
03373980WHITE RIVER ABOVE PETERSBURG, IN 16 16.83 31,000   2016-05-03 15:30:00 PETI3
03360730WHITE RIVER NEAR EDWARDSPORT, IN 15 15.30 14,800 61,400 2016-05-03 15:30:00  
06909000Missouri River at Boonville, MO 21 21.67 185,000 755,000 2016-05-03 15:30:00 BOZM7
08040600Neches Rv nr Town Bluff, TX 68 69.09 21,500 120,000 2016-05-03 15:45:00 TBFT2
05485500Des Moines River blw Raccoon Riv at Des Moines, IA 24 25.00 30,400 116,000 2016-05-03 15:00:00 DESI4
08028500Sabine Rv nr Bon Wier, TX 30 32.09 33,400 115,000 2016-05-03 15:15:00 BWRT2
08022500Sabine Rv at Logansport, LA 28 29.75

 

92,000 2016-05-03 15:45:00 LPTL1
02076000DAN RIVER AT SOUTH BOSTON, VA 19 19.87 13,400 81,000 2016-05-03 16:00:00 SBNV2
06934500Missouri River at Hermann, MO 21 21.13 205,000 750,000 2016-05-03 15:30:00 HRZM7
07143310COW C NR HUTCHINSON, KS 9.5 9.61

 

  2016-05-03 15:15:00 HTCK1